sensor_id;sensor_type;location;lat;lon;timestamp;temperature;humidity
16287;DHT22;8251;53.568;10.018;2023-04-01T00:01:54;14.40;91.20
16287;DHT22;8251;53.568;10.018;2023-04-01T00:04:21;14.40;91.10
16287;DHT22;8251;53.568;10.018;2023-04-01T00:06:48;14.30;91.00
16287;DHT22;8251;53.568;10.018;2023-04-01T00:09:17;14.30;91.10
16287;DHT22;8251;53.568;10.018;2023-04-01T00:11:44;14.30;91.00
16287;DHT22;8251;53.568;10.018;2023-04-01T00:14:11;14.20;91.10
16287;DHT22;8251;53.568;10.018;2023-04-01T00:16:38;14.20;91.20
16287;DHT22;8251;53.568;10.018;2023-04-01T00:19:06;14.20;91.30
16287;DHT22;8251;53.568;10.018;2023-04-01T00:21:33;14.10;91.40
16287;DHT22;8251;53.568;10.018;2023-04-01T00:24:01;14.20;91.40
16287;DHT22;8251;53.568;10.018;2023-04-01T00:26:28;14.10;91.40
16287;DHT22;8251;53.568;10.018;2023-04-01T00:28:54;14.20;91.40
16287;DHT22;8251;53.568;10.018;2023-04-01T00:31:24;14.20;91.40
16287;DHT22;8251;53.568;10.018;2023-04-01T00:33:51;14.20;91.40
16287;DHT22;8251;53.568;10.018;2023-04-01T00:36:21;14.30;91.40
16287;DHT22;8251;53.568;10.018;2023-04-01T00:38:49;14.30;91.40
16287;DHT22;8251;53.568;10.018;2023-04-01T00:41:18;14.30;91.30
16287;DHT22;8251;53.568;10.018;2023-04-01T00:43:47;14.30;91.30
16287;DHT22;8251;53.568;10.018;2023-04-01T00:46:15;14.30;91.30
16287;DHT22;8251;53.568;10.018;2023-04-01T00:48:44;14.30;91.20
16287;DHT22;8251;53.568;10.018;2023-04-01T00:51:15;14.30;91.20
16287;DHT22;8251;53.568;10.018;2023-04-01T00:53:47;14.20;91.20
16287;DHT22;8251;53.568;10.018;2023-04-01T00:56:18;14.20;91.20
16287;DHT22;8251;53.568;10.018;2023-04-01T00:58:51;14.20;91.30
16287;DHT22;8251;53.568;10.018;2023-04-01T01:01:20;14.20;91.20
16287;DHT22;8251;53.568;10.018;2023-04-01T01:03:48;14.10;91.60
16287;DHT22;8251;53.568;10.018;2023-04-01T01:06:26;14.10;91.20
16287;DHT22;8251;53.568;10.018;2023-04-01T01:09:15;14.10;91.30
16287;DHT22;8251;53.568;10.018;2023-04-01T01:11:48;14.10;91.30
16287;DHT22;8251;53.568;10.018;2023-04-01T01:14:36;14.00;91.40
16287;DHT22;8251;53.568;10.018;2023-04-01T01:17:12;14.10;91.40
16287;DHT22;8251;53.568;10.018;2023-04-01T01:20:14;14.00;91.30
16287;DHT22;8251;53.568;10.018;2023-04-01T01:26:14;13.90;91.50
16287;DHT22;8251;53.568;10.018;2023-04-01T01:28:53;13.90;91.50
16287;DHT22;8251;53.568;10.018;2023-04-01T01:31:31;13.90;91.60
16287;DHT22;8251;53.568;10.018;2023-04-01T01:34:09;13.90;91.60
16287;DHT22;8251;53.568;10.018;2023-04-01T01:36:40;13.90;91.90
16287;DHT22;8251;53.568;10.018;2023-04-01T01:39:11;13.90;91.50
16287;DHT22;8251;53.568;10.018;2023-04-01T01:41:41;13.90;91.50
16287;DHT22;8251;53.568;10.018;2023-04-01T01:44:11;13.90;91.60
16287;DHT22;8251;53.568;10.018;2023-04-01T01:46:41;14.00;91.60
16287;DHT22;8251;53.568;10.018;2023-04-01T01:49:10;13.90;91.60
16287;DHT22;8251;53.568;10.018;2023-04-01T01:51:39;13.90;91.60
16287;DHT22;8251;53.568;10.018;2023-04-01T01:54:12;13.90;91.90
16287;DHT22;8251;53.568;10.018;2023-04-01T01:56:39;13.80;91.50
16287;DHT22;8251;53.568;10.018;2023-04-01T01:59:10;13.80;91.50
16287;DHT22;8251;53.568;10.018;2023-04-01T02:01:41;13.70;91.60
16287;DHT22;8251;53.568;10.018;2023-04-01T02:04:10;13.70;91.70
16287;DHT22;8251;53.568;10.018;2023-04-01T02:06:41;13.70;91.80
16287;DHT22;8251;53.568;10.018;2023-04-01T02:09:11;13.70;91.80
16287;DHT22;8251;53.568;10.018;2023-04-01T02:11:41;13.80;91.80
16287;DHT22;8251;53.568;10.018;2023-04-01T02:14:11;13.80;91.80
16287;DHT22;8251;53.568;10.018;2023-04-01T02:16:45;13.80;91.80
16287;DHT22;8251;53.568;10.018;2023-04-01T02:19:14;13.90;91.80
16287;DHT22;8251;53.568;10.018;2023-04-01T02:21:50;13.90;91.80
16287;DHT22;8251;53.568;10.018;2023-04-01T02:24:18;13.90;91.70
16287;DHT22;8251;53.568;10.018;2023-04-01T02:26:49;13.90;91.60
16287;DHT22;8251;53.568;10.018;2023-04-01T02:29:18;13.90;91.60
16287;DHT22;8251;53.568;10.018;2023-04-01T02:31:46;13.90;91.60
16287;DHT22;8251;53.568;10.018;2023-04-01T02:34:13;13.90;91.60
16287;DHT22;8251;53.568;10.018;2023-04-01T02:36:41;13.90;91.70
16287;DHT22;8251;53.568;10.018;2023-04-01T02:39:09;13.90;91.70
16287;DHT22;8251;53.568;10.018;2023-04-01T02:41:39;13.90;91.70
16287;DHT22;8251;53.568;10.018;2023-04-01T02:44:06;14.00;91.60
16287;DHT22;8251;53.568;10.018;2023-04-01T02:46:33;13.90;91.50
16287;DHT22;8251;53.568;10.018;2023-04-01T02:49:01;13.90;91.50
16287;DHT22;8251;53.568;10.018;2023-04-01T02:51:28;13.90;91.50
16287;DHT22;8251;53.568;10.018;2023-04-01T02:53:54;13.90;91.50
16287;DHT22;8251;53.568;10.018;2023-04-01T02:56:23;13.80;91.60
16287;DHT22;8251;53.568;10.018;2023-04-01T02:58:51;13.90;92.10
16287;DHT22;8251;53.568;10.018;2023-04-01T03:01:18;13.90;91.70
16287;DHT22;8251;53.568;10.018;2023-04-01T03:03:45;13.80;91.70
16287;DHT22;8251;53.568;10.018;2023-04-01T03:06:13;13.80;91.50
16287;DHT22;8251;53.568;10.018;2023-04-01T03:08:41;13.80;91.60
16287;DHT22;8251;53.568;10.018;2023-04-01T03:11:09;13.80;91.60
16287;DHT22;8251;53.568;10.018;2023-04-01T03:13:37;13.80;91.70
16287;DHT22;8251;53.568;10.018;2023-04-01T03:16:04;13.80;91.70
16287;DHT22;8251;53.568;10.018;2023-04-01T03:18:31;13.80;91.70
16287;DHT22;8251;53.568;10.018;2023-04-01T03:21:12;13.80;91.70
16287;DHT22;8251;53.568;10.018;2023-04-01T03:23:39;13.80;91.70
16287;DHT22;8251;53.568;10.018;2023-04-01T03:26:06;13.80;91.80
16287;DHT22;8251;53.568;10.018;2023-04-01T03:28:33;13.80;91.70
16287;DHT22;8251;53.568;10.018;2023-04-01T03:31:02;13.80;91.60
16287;DHT22;8251;53.568;10.018;2023-04-01T03:33:29;13.80;92.10
16287;DHT22;8251;53.568;10.018;2023-04-01T03:35:56;13.80;91.70
16287;DHT22;8251;53.568;10.018;2023-04-01T03:38:23;13.80;91.60
16287;DHT22;8251;53.568;10.018;2023-04-01T03:40:50;13.80;91.60
16287;DHT22;8251;53.568;10.018;2023-04-01T03:43:17;13.80;92.00
16287;DHT22;8251;53.568;10.018;2023-04-01T03:45:44;13.80;91.60
16287;DHT22;8251;53.568;10.018;2023-04-01T03:48:13;13.80;91.60
16287;DHT22;8251;53.568;10.018;2023-04-01T03:50:40;13.80;91.60
16287;DHT22;8251;53.568;10.018;2023-04-01T03:53:07;13.80;91.60
16287;DHT22;8251;53.568;10.018;2023-04-01T03:55:36;13.80;91.70
16287;DHT22;8251;53.568;10.018;2023-04-01T03:58:03;13.80;91.70
16287;DHT22;8251;53.568;10.018;2023-04-01T04:00:30;13.70;91.70
16287;DHT22;8251;53.568;10.018;2023-04-01T04:02:58;13.70;91.70
16287;DHT22;8251;53.568;10.018;2023-04-01T04:05:26;13.70;91.80
16287;DHT22;8251;53.568;10.018;2023-04-01T04:07:53;13.70;91.80
16287;DHT22;8251;53.568;10.018;2023-04-01T04:10:21;13.70;91.80
16287;DHT22;8251;53.568;10.018;2023-04-01T04:12:49;13.70;91.80
16287;DHT22;8251;53.568;10.018;2023-04-01T04:15:16;13.70;91.80
16287;DHT22;8251;53.568;10.018;2023-04-01T04:17:44;13.70;91.80
16287;DHT22;8251;53.568;10.018;2023-04-01T04:20:37;13.70;91.80
16287;DHT22;8251;53.568;10.018;2023-04-01T04:23:11;13.70;91.70
16287;DHT22;8251;53.568;10.018;2023-04-01T04:25:37;13.70;91.80
16287;DHT22;8251;53.568;10.018;2023-04-01T04:28:04;13.70;91.80
16287;DHT22;8251;53.568;10.018;2023-04-01T04:30:31;13.70;91.80
16287;DHT22;8251;53.568;10.018;2023-04-01T04:32:58;13.70;91.80
16287;DHT22;8251;53.568;10.018;2023-04-01T04:35:25;13.70;91.80
16287;DHT22;8251;53.568;10.018;2023-04-01T04:37:53;13.70;91.80
16287;DHT22;8251;53.568;10.018;2023-04-01T04:40:20;13.70;91.80
16287;DHT22;8251;53.568;10.018;2023-04-01T04:42:47;13.70;91.80
16287;DHT22;8251;53.568;10.018;2023-04-01T04:45:14;13.60;91.80
16287;DHT22;8251;53.568;10.018;2023-04-01T04:47:41;13.60;91.80
16287;DHT22;8251;53.568;10.018;2023-04-01T04:50:08;13.60;91.90
16287;DHT22;8251;53.568;10.018;2023-04-01T04:52:35;13.60;91.90
16287;DHT22;8251;53.568;10.018;2023-04-01T04:55:05;13.60;91.90
16287;DHT22;8251;53.568;10.018;2023-04-01T04:57:32;13.60;91.90
16287;DHT22;8251;53.568;10.018;2023-04-01T04:59:59;13.60;92.00
16287;DHT22;8251;53.568;10.018;2023-04-01T05:02:25;13.60;92.10
16287;DHT22;8251;53.568;10.018;2023-04-01T05:04:52;13.60;92.10
16287;DHT22;8251;53.568;10.018;2023-04-01T05:07:19;13.60;92.10
16287;DHT22;8251;53.568;10.018;2023-04-01T05:09:46;13.60;92.20
16287;DHT22;8251;53.568;10.018;2023-04-01T05:12:14;13.60;92.10
16287;DHT22;8251;53.568;10.018;2023-04-01T05:14:41;13.60;92.10
16287;DHT22;8251;53.568;10.018;2023-04-01T05:17:09;13.70;92.10
16287;DHT22;8251;53.568;10.018;2023-04-01T05:19:36;13.60;92.00
16287;DHT22;8251;53.568;10.018;2023-04-01T05:22:03;13.60;92.10
16287;DHT22;8251;53.568;10.018;2023-04-01T05:24:30;13.60;92.10
16287;DHT22;8251;53.568;10.018;2023-04-01T05:26:57;13.60;92.10
16287;DHT22;8251;53.568;10.018;2023-04-01T05:29:26;13.60;92.10
16287;DHT22;8251;53.568;10.018;2023-04-01T05:31:53;13.60;92.20
16287;DHT22;8251;53.568;10.018;2023-04-01T05:34:20;13.50;91.60
16287;DHT22;8251;53.568;10.018;2023-04-01T05:36:47;13.40;91.40
16287;DHT22;8251;53.568;10.018;2023-04-01T05:39:14;13.40;91.30
16287;DHT22;8251;53.568;10.018;2023-04-01T05:41:41;13.30;91.10
16287;DHT22;8251;53.568;10.018;2023-04-01T05:44:11;13.20;91.10
16287;DHT22;8251;53.568;10.018;2023-04-01T05:46:40;13.10;91.00
16287;DHT22;8251;53.568;10.018;2023-04-01T05:49:07;13.00;91.00
16287;DHT22;8251;53.568;10.018;2023-04-01T05:51:34;13.20;91.10
16287;DHT22;8251;53.568;10.018;2023-04-01T05:54:01;13.00;91.10
16287;DHT22;8251;53.568;10.018;2023-04-01T05:56:28;13.00;91.00
16287;DHT22;8251;53.568;10.018;2023-04-01T05:58:55;12.90;90.90
16287;DHT22;8251;53.568;10.018;2023-04-01T06:01:22;12.80;90.60
16287;DHT22;8251;53.568;10.018;2023-04-01T06:03:50;12.80;90.70
16287;DHT22;8251;53.568;10.018;2023-04-01T06:06:24;12.80;90.60
16287;DHT22;8251;53.568;10.018;2023-04-01T06:08:52;12.70;90.60
16287;DHT22;8251;53.568;10.018;2023-04-01T06:11:26;12.70;90.60
16287;DHT22;8251;53.568;10.018;2023-04-01T06:14:07;12.60;90.60
16287;DHT22;8251;53.568;10.018;2023-04-01T06:16:46;12.80;90.60
16287;DHT22;8251;53.568;10.018;2023-04-01T06:19:27;12.60;90.50
16287;DHT22;8251;53.568;10.018;2023-04-01T06:22:09;12.50;90.50
16287;DHT22;8251;53.568;10.018;2023-04-01T06:25:02;12.50;90.40
16287;DHT22;8251;53.568;10.018;2023-04-01T06:27:43;12.50;90.40
16287;DHT22;8251;53.568;10.018;2023-04-01T06:30:37;12.40;90.30
16287;DHT22;8251;53.568;10.018;2023-04-01T06:33:23;12.40;90.40
16287;DHT22;8251;53.568;10.018;2023-04-01T06:36:14;12.30;90.40
16287;DHT22;8251;53.568;10.018;2023-04-01T06:39:00;12.20;90.00
16287;DHT22;8251;53.568;10.018;2023-04-01T06:42:04;12.00;89.60
16287;DHT22;8251;53.568;10.018;2023-04-01T06:44:40;11.90;90.00
16287;DHT22;8251;53.568;10.018;2023-04-01T06:47:21;11.80;90.20
16287;DHT22;8251;53.568;10.018;2023-04-01T06:49:56;11.80;90.40
16287;DHT22;8251;53.568;10.018;2023-04-01T06:52:34;11.80;90.50
16287;DHT22;8251;53.568;10.018;2023-04-01T06:55:18;11.80;90.30
16287;DHT22;8251;53.568;10.018;2023-04-01T06:57:49;11.70;90.20
16287;DHT22;8251;53.568;10.018;2023-04-01T07:00:25;11.60;90.40
16287;DHT22;8251;53.568;10.018;2023-04-01T07:03:02;11.60;90.30
16287;DHT22;8251;53.568;10.018;2023-04-01T07:05:33;11.50;90.50
16287;DHT22;8251;53.568;10.018;2023-04-01T07:08:04;11.50;90.70
16287;DHT22;8251;53.568;10.018;2023-04-01T07:10:35;11.50;90.70
16287;DHT22;8251;53.568;10.018;2023-04-01T07:13:09;11.50;90.80
16287;DHT22;8251;53.568;10.018;2023-04-01T07:15:39;11.50;90.60
16287;DHT22;8251;53.568;10.018;2023-04-01T07:18:12;11.40;90.30
16287;DHT22;8251;53.568;10.018;2023-04-01T07:20:42;11.40;90.40
16287;DHT22;8251;53.568;10.018;2023-04-01T07:23:22;11.30;90.30
16287;DHT22;8251;53.568;10.018;2023-04-01T07:25:52;11.30;90.20
16287;DHT22;8251;53.568;10.018;2023-04-01T07:28:21;11.20;90.20
16287;DHT22;8251;53.568;10.018;2023-04-01T07:30:52;11.10;90.20
16287;DHT22;8251;53.568;10.018;2023-04-01T07:33:28;11.10;90.20
16287;DHT22;8251;53.568;10.018;2023-04-01T07:36:02;11.10;90.40
16287;DHT22;8251;53.568;10.018;2023-04-01T07:38:44;11.00;90.40
16287;DHT22;8251;53.568;10.018;2023-04-01T07:41:18;11.00;90.30
16287;DHT22;8251;53.568;10.018;2023-04-01T07:44:00;11.00;90.40
16287;DHT22;8251;53.568;10.018;2023-04-01T07:46:49;11.00;90.30
16287;DHT22;8251;53.568;10.018;2023-04-01T07:49:22;11.00;90.20
16287;DHT22;8251;53.568;10.018;2023-04-01T07:51:54;10.90;90.00
16287;DHT22;8251;53.568;10.018;2023-04-01T07:54:30;10.90;90.10
16287;DHT22;8251;53.568;10.018;2023-04-01T07:57:05;10.80;90.10
16287;DHT22;8251;53.568;10.018;2023-04-01T07:59:44;10.90;90.30
16287;DHT22;8251;53.568;10.018;2023-04-01T08:02:25;10.90;90.30
16287;DHT22;8251;53.568;10.018;2023-04-01T08:05:00;10.90;90.40
16287;DHT22;8251;53.568;10.018;2023-04-01T08:07:35;10.80;90.50
16287;DHT22;8251;53.568;10.018;2023-04-01T08:10:12;10.90;90.70
16287;DHT22;8251;53.568;10.018;2023-04-01T08:12:49;10.90;90.70
16287;DHT22;8251;53.568;10.018;2023-04-01T08:15:23;11.00;90.70
16287;DHT22;8251;53.568;10.018;2023-04-01T08:18:05;11.00;90.60
16287;DHT22;8251;53.568;10.018;2023-04-01T08:20:38;11.00;90.10
16287;DHT22;8251;53.568;10.018;2023-04-01T08:23:13;10.90;89.60
16287;DHT22;8251;53.568;10.018;2023-04-01T08:25:45;10.80;89.70
16287;DHT22;8251;53.568;10.018;2023-04-01T08:28:32;10.80;89.50
16287;DHT22;8251;53.568;10.018;2023-04-01T08:31:16;10.80;89.70
16287;DHT22;8251;53.568;10.018;2023-04-01T08:33:47;10.70;89.50
16287;DHT22;8251;53.568;10.018;2023-04-01T08:36:18;10.60;89.30
16287;DHT22;8251;53.568;10.018;2023-04-01T08:38:53;10.50;89.50
16287;DHT22;8251;53.568;10.018;2023-04-01T08:47:29;10.50;90.20
16287;DHT22;8251;53.568;10.018;2023-04-01T08:50:22;10.50;89.30
16287;DHT22;8251;53.568;10.018;2023-04-01T08:52:58;10.40;89.70
16287;DHT22;8251;53.568;10.018;2023-04-01T08:55:38;10.40;90.00
16287;DHT22;8251;53.568;10.018;2023-04-01T08:58:30;10.40;90.30
16287;DHT22;8251;53.568;10.018;2023-04-01T09:01:11;10.50;90.30
16287;DHT22;8251;53.568;10.018;2023-04-01T09:04:16;10.50;90.20
16287;DHT22;8251;53.568;10.018;2023-04-01T09:06:56;10.50;90.60
16287;DHT22;8251;53.568;10.018;2023-04-01T09:12:51;10.60;90.30
16287;DHT22;8251;53.568;10.018;2023-04-01T09:15:37;10.60;90.30
16287;DHT22;8251;53.568;10.018;2023-04-01T09:21:50;10.60;90.20
16287;DHT22;8251;53.568;10.018;2023-04-01T09:24:58;10.60;90.00
16287;DHT22;8251;53.568;10.018;2023-04-01T09:27:30;10.60;90.00
16287;DHT22;8251;53.568;10.018;2023-04-01T09:30:33;10.60;90.00
16287;DHT22;8251;53.568;10.018;2023-04-01T09:36:22;10.70;89.80
16287;DHT22;8251;53.568;10.018;2023-04-01T09:39:03;10.80;89.90
16287;DHT22;8251;53.568;10.018;2023-04-01T09:42:14;10.80;89.90
16287;DHT22;8251;53.568;10.018;2023-04-01T09:44:46;10.90;89.80
16287;DHT22;8251;53.568;10.018;2023-04-01T09:47:30;10.90;89.20
16287;DHT22;8251;53.568;10.018;2023-04-01T09:50:28;10.90;88.60
16287;DHT22;8251;53.568;10.018;2023-04-01T09:53:12;10.90;88.40
16287;DHT22;8251;53.568;10.018;2023-04-01T09:56:23;11.00;88.40
16287;DHT22;8251;53.568;10.018;2023-04-01T09:59:47;10.90;88.00
16287;DHT22;8251;53.568;10.018;2023-04-01T10:05:50;11.00;88.00
16287;DHT22;8251;53.568;10.018;2023-04-01T10:12:12;11.00;88.40
16287;DHT22;8251;53.568;10.018;2023-04-01T10:21:07;10.90;89.20
16287;DHT22;8251;53.568;10.018;2023-04-01T10:23:59;10.90;89.80
16287;DHT22;8251;53.568;10.018;2023-04-01T10:26:53;11.00;89.00
16287;DHT22;8251;53.568;10.018;2023-04-01T10:29:55;11.00;88.50
16287;DHT22;8251;53.568;10.018;2023-04-01T10:36:13;11.00;87.80
16287;DHT22;8251;53.568;10.018;2023-04-01T10:39:26;11.00;88.00
16287;DHT22;8251;53.568;10.018;2023-04-01T10:45:57;10.90;87.90
16287;DHT22;8251;53.568;10.018;2023-04-01T10:51:45;10.80;88.80
16287;DHT22;8251;53.568;10.018;2023-04-01T10:54:41;10.90;89.00
16287;DHT22;8251;53.568;10.018;2023-04-01T10:57:28;10.90;88.60
16287;DHT22;8251;53.568;10.018;2023-04-01T11:00:22;10.90;88.80
16287;DHT22;8251;53.568;10.018;2023-04-01T11:03:45;10.90;87.70
16287;DHT22;8251;53.568;10.018;2023-04-01T11:06:42;10.80;87.50
16287;DHT22;8251;53.568;10.018;2023-04-01T11:18:56;11.10;89.20
16287;DHT22;8251;53.568;10.018;2023-04-01T11:22:09;11.10;87.50
16287;DHT22;8251;53.568;10.018;2023-04-01T11:27:50;10.90;87.00
16287;DHT22;8251;53.568;10.018;2023-04-01T11:30:26;10.90;87.20
16287;DHT22;8251;53.568;10.018;2023-04-01T11:33:01;10.80;87.50
16287;DHT22;8251;53.568;10.018;2023-04-01T11:39:01;10.70;87.50
16287;DHT22;8251;53.568;10.018;2023-04-01T11:41:41;10.70;88.30
16287;DHT22;8251;53.568;10.018;2023-04-01T11:44:16;10.90;88.70
16287;DHT22;8251;53.568;10.018;2023-04-01T11:46:59;10.90;88.60
16287;DHT22;8251;53.568;10.018;2023-04-01T11:49:43;10.90;87.80
16287;DHT22;8251;53.568;10.018;2023-04-01T11:55:42;10.90;87.40
16287;DHT22;8251;53.568;10.018;2023-04-01T11:58:33;10.80;87.30
16287;DHT22;8251;53.568;10.018;2023-04-01T12:01:16;10.80;87.30
16287;DHT22;8251;53.568;10.018;2023-04-01T12:04:00;10.80;87.20
16287;DHT22;8251;53.568;10.018;2023-04-01T12:06:41;10.80;86.90
16287;DHT22;8251;53.568;10.018;2023-04-01T12:09:18;10.80;86.70
16287;DHT22;8251;53.568;10.018;2023-04-01T12:12:07;10.80;87.10
16287;DHT22;8251;53.568;10.018;2023-04-01T12:14:43;10.80;87.20
16287;DHT22;8251;53.568;10.018;2023-04-01T12:17:30;10.80;86.60
16287;DHT22;8251;53.568;10.018;2023-04-01T12:20:28;10.80;86.90
16287;DHT22;8251;53.568;10.018;2023-04-01T12:23:07;10.90;86.60
16287;DHT22;8251;53.568;10.018;2023-04-01T12:25:56;10.80;86.90
16287;DHT22;8251;53.568;10.018;2023-04-01T12:28:36;10.70;86.40
16287;DHT22;8251;53.568;10.018;2023-04-01T12:31:19;10.80;86.80
16287;DHT22;8251;53.568;10.018;2023-04-01T12:34:28;10.80;86.70
16287;DHT22;8251;53.568;10.018;2023-04-01T12:37:05;10.70;86.20
16287;DHT22;8251;53.568;10.018;2023-04-01T12:39:48;10.70;87.30
16287;DHT22;8251;53.568;10.018;2023-04-01T12:42:35;10.70;86.20
16287;DHT22;8251;53.568;10.018;2023-04-01T12:48:23;10.70;85.20
16287;DHT22;8251;53.568;10.018;2023-04-01T12:51:20;10.60;85.10
16287;DHT22;8251;53.568;10.018;2023-04-01T12:54:12;10.50;85.60
16287;DHT22;8251;53.568;10.018;2023-04-01T12:56:49;10.40;85.80
16287;DHT22;8251;53.568;10.018;2023-04-01T12:59:33;10.40;86.60
16287;DHT22;8251;53.568;10.018;2023-04-01T13:02:13;10.50;86.90
16287;DHT22;8251;53.568;10.018;2023-04-01T13:08:01;10.40;86.20
16287;DHT22;8251;53.568;10.018;2023-04-01T13:10:39;10.30;85.90
16287;DHT22;8251;53.568;10.018;2023-04-01T13:13:35;10.20;85.10
16287;DHT22;8251;53.568;10.018;2023-04-01T13:16:10;10.20;86.10
16287;DHT22;8251;53.568;10.018;2023-04-01T13:18:47;10.10;86.10
16287;DHT22;8251;53.568;10.018;2023-04-01T13:21:28;10.20;86.20
16287;DHT22;8251;53.568;10.018;2023-04-01T13:24:11;10.10;86.10
16287;DHT22;8251;53.568;10.018;2023-04-01T13:26:54;10.10;85.80
16287;DHT22;8251;53.568;10.018;2023-04-01T13:29:28;10.10;85.60
16287;DHT22;8251;53.568;10.018;2023-04-01T13:32:18;10.00;85.30
16287;DHT22;8251;53.568;10.018;2023-04-01T13:35:03;10.00;85.70
16287;DHT22;8251;53.568;10.018;2023-04-01T13:37:48;10.00;85.90
16287;DHT22;8251;53.568;10.018;2023-04-01T13:40:27;10.00;86.50
16287;DHT22;8251;53.568;10.018;2023-04-01T13:43:04;10.10;85.50
16287;DHT22;8251;53.568;10.018;2023-04-01T13:45:42;9.90;85.60
16287;DHT22;8251;53.568;10.018;2023-04-01T13:48:57;9.90;84.90
16287;DHT22;8251;53.568;10.018;2023-04-01T13:51:56;9.80;84.50
16287;DHT22;8251;53.568;10.018;2023-04-01T13:54:47;9.80;85.30
16287;DHT22;8251;53.568;10.018;2023-04-01T13:57:26;9.80;85.30
16287;DHT22;8251;53.568;10.018;2023-04-01T14:06:29;9.90;85.70
16287;DHT22;8251;53.568;10.018;2023-04-01T14:09:36;10.00;85.60
16287;DHT22;8251;53.568;10.018;2023-04-01T14:12:17;10.00;85.50
16287;DHT22;8251;53.568;10.018;2023-04-01T14:15:04;10.00;84.60
16287;DHT22;8251;53.568;10.018;2023-04-01T14:17:45;10.00;84.40
16287;DHT22;8251;53.568;10.018;2023-04-01T14:20:33;9.90;84.30
16287;DHT22;8251;53.568;10.018;2023-04-01T14:23:34;9.90;84.80
16287;DHT22;8251;53.568;10.018;2023-04-01T14:26:29;9.90;84.30
16287;DHT22;8251;53.568;10.018;2023-04-01T14:29:08;9.90;84.40
16287;DHT22;8251;53.568;10.018;2023-04-01T14:32:10;10.00;84.90
16287;DHT22;8251;53.568;10.018;2023-04-01T14:34:55;9.80;84.10
16287;DHT22;8251;53.568;10.018;2023-04-01T14:37:55;9.80;84.00
16287;DHT22;8251;53.568;10.018;2023-04-01T14:40:49;9.80;83.80
16287;DHT22;8251;53.568;10.018;2023-04-01T14:43:52;9.70;84.20
16287;DHT22;8251;53.568;10.018;2023-04-01T14:46:41;9.70;84.80
16287;DHT22;8251;53.568;10.018;2023-04-01T14:49:17;9.70;84.50
16287;DHT22;8251;53.568;10.018;2023-04-01T14:51:47;9.80;84.70
16287;DHT22;8251;53.568;10.018;2023-04-01T14:54:21;9.80;84.20
16287;DHT22;8251;53.568;10.018;2023-04-01T14:57:09;9.80;83.20
16287;DHT22;8251;53.568;10.018;2023-04-01T14:59:46;9.80;83.20
16287;DHT22;8251;53.568;10.018;2023-04-01T15:02:38;9.80;83.50
16287;DHT22;8251;53.568;10.018;2023-04-01T15:05:31;9.80;83.90
16287;DHT22;8251;53.568;10.018;2023-04-01T15:08:14;9.80;83.70
16287;DHT22;8251;53.568;10.018;2023-04-01T15:14:00;9.80;83.60
16287;DHT22;8251;53.568;10.018;2023-04-01T15:16:50;9.80;83.90
16287;DHT22;8251;53.568;10.018;2023-04-01T15:22:27;9.70;84.80
16287;DHT22;8251;53.568;10.018;2023-04-01T15:25:19;9.70;85.50
16287;DHT22;8251;53.568;10.018;2023-04-01T15:27:52;9.80;85.50
16287;DHT22;8251;53.568;10.018;2023-04-01T15:30:33;9.80;85.10
16287;DHT22;8251;53.568;10.018;2023-04-01T15:36:16;9.80;85.50
16287;DHT22;8251;53.568;10.018;2023-04-01T15:38:50;9.80;85.40
16287;DHT22;8251;53.568;10.018;2023-04-01T15:41:27;9.70;84.50
16287;DHT22;8251;53.568;10.018;2023-04-01T15:43:56;9.70;84.70
16287;DHT22;8251;53.568;10.018;2023-04-01T15:46:52;9.60;84.80
16287;DHT22;8251;53.568;10.018;2023-04-01T15:49:28;9.60;84.80
16287;DHT22;8251;53.568;10.018;2023-04-01T15:52:06;9.60;85.40
16287;DHT22;8251;53.568;10.018;2023-04-01T15:54:55;9.60;85.80
16287;DHT22;8251;53.568;10.018;2023-04-01T15:57:32;9.50;85.90
16287;DHT22;8251;53.568;10.018;2023-04-01T16:00:22;9.50;86.30
16287;DHT22;8251;53.568;10.018;2023-04-01T16:05:57;9.50;86.20
16287;DHT22;8251;53.568;10.018;2023-04-01T16:08:44;9.60;86.10
16287;DHT22;8251;53.568;10.018;2023-04-01T16:11:23;9.50;85.60
16287;DHT22;8251;53.568;10.018;2023-04-01T16:14:04;9.50;85.40
16287;DHT22;8251;53.568;10.018;2023-04-01T16:16:47;9.40;85.30
16287;DHT22;8251;53.568;10.018;2023-04-01T16:19:31;9.40;85.90
16287;DHT22;8251;53.568;10.018;2023-04-01T16:22:08;9.30;85.90
16287;DHT22;8251;53.568;10.018;2023-04-01T16:24:43;9.30;85.80
16287;DHT22;8251;53.568;10.018;2023-04-01T16:27:18;9.20;85.30
16287;DHT22;8251;53.568;10.018;2023-04-01T16:29:55;9.20;84.90
16287;DHT22;8251;53.568;10.018;2023-04-01T16:32:38;9.10;84.80
16287;DHT22;8251;53.568;10.018;2023-04-01T16:35:41;9.10;85.10
16287;DHT22;8251;53.568;10.018;2023-04-01T16:38:38;8.90;84.80
16287;DHT22;8251;53.568;10.018;2023-04-01T16:41:14;8.90;85.60
16287;DHT22;8251;53.568;10.018;2023-04-01T16:43:48;8.90;84.80
16287;DHT22;8251;53.568;10.018;2023-04-01T16:46:32;8.90;85.00
16287;DHT22;8251;53.568;10.018;2023-04-01T16:49:13;8.90;85.20
16287;DHT22;8251;53.568;10.018;2023-04-01T16:51:47;8.80;85.50
16287;DHT22;8251;53.568;10.018;2023-04-01T16:54:28;8.90;85.60
16287;DHT22;8251;53.568;10.018;2023-04-01T16:57:12;8.90;85.90
16287;DHT22;8251;53.568;10.018;2023-04-01T17:00:15;9.00;85.80
16287;DHT22;8251;53.568;10.018;2023-04-01T17:02:47;9.00;86.10
16287;DHT22;8251;53.568;10.018;2023-04-01T17:05:15;9.10;85.40
16287;DHT22;8251;53.568;10.018;2023-04-01T17:07:48;9.00;85.20
16287;DHT22;8251;53.568;10.018;2023-04-01T17:10:39;9.00;85.00
16287;DHT22;8251;53.568;10.018;2023-04-01T17:13:27;9.00;85.00
16287;DHT22;8251;53.568;10.018;2023-04-01T17:16:06;9.00;85.00
16287;DHT22;8251;53.568;10.018;2023-04-01T17:18:46;9.00;84.40
16287;DHT22;8251;53.568;10.018;2023-04-01T17:21:23;9.00;84.60
16287;DHT22;8251;53.568;10.018;2023-04-01T17:23:57;9.00;85.40
16287;DHT22;8251;53.568;10.018;2023-04-01T17:26:34;9.00;83.80
16287;DHT22;8251;53.568;10.018;2023-04-01T17:29:07;9.00;82.90
16287;DHT22;8251;53.568;10.018;2023-04-01T17:31:46;8.90;82.80
16287;DHT22;8251;53.568;10.018;2023-04-01T17:34:27;8.90;82.70
16287;DHT22;8251;53.568;10.018;2023-04-01T17:37:05;8.90;82.50
16287;DHT22;8251;53.568;10.018;2023-04-01T17:39:47;8.90;82.80
16287;DHT22;8251;53.568;10.018;2023-04-01T17:42:22;8.80;82.40
16287;DHT22;8251;53.568;10.018;2023-04-01T17:44:58;8.80;82.20
16287;DHT22;8251;53.568;10.018;2023-04-01T17:47:48;8.80;82.60
16287;DHT22;8251;53.568;10.018;2023-04-01T17:50:24;8.80;82.50
16287;DHT22;8251;53.568;10.018;2023-04-01T17:53:09;8.80;82.90
16287;DHT22;8251;53.568;10.018;2023-04-01T17:55:53;8.90;82.90
16287;DHT22;8251;53.568;10.018;2023-04-01T17:58:29;8.90;82.30
16287;DHT22;8251;53.568;10.018;2023-04-01T18:01:05;8.90;81.90
16287;DHT22;8251;53.568;10.018;2023-04-01T18:06:59;8.90;81.80
16287;DHT22;8251;53.568;10.018;2023-04-01T18:09:40;8.90;81.60
16287;DHT22;8251;53.568;10.018;2023-04-01T18:12:14;8.80;81.70